sensor_id;sensor_type;location;lat;lon;timestamp;P1;durP1;ratioP1;P2;durP2;ratioP2
13611;SDS011;6877;51.436;6.774;2023-02-08T00:00:21;21.58;;;10.73;;
13611;SDS011;6877;51.436;6.774;2023-02-08T00:02:49;20.38;;;12.27;;
13611;SDS011;6877;51.436;6.774;2023-02-08T00:05:15;21.83;;;11.88;;
13611;SDS011;6877;51.436;6.774;2023-02-08T00:07:45;19.10;;;11.70;;
13611;SDS011;6877;51.436;6.774;2023-02-08T00:10:12;20.25;;;12.45;;
13611;SDS011;6877;51.436;6.774;2023-02-08T00:12:44;16.70;;;9.75;;
13611;SDS011;6877;51.436;6.774;2023-02-08T00:15:11;23.48;;;12.30;;
13611;SDS011;6877;51.436;6.774;2023-02-08T00:17:38;22.23;;;12.88;;
13611;SDS011;6877;51.436;6.774;2023-02-08T00:20:04;21.35;;;11.88;;
13611;SDS011;6877;51.436;6.774;2023-02-08T00:22:31;23.60;;;12.05;;
13611;SDS011;6877;51.436;6.774;2023-02-08T00:24:58;27.25;;;13.20;;
13611;SDS011;6877;51.436;6.774;2023-02-08T00:27:25;23.00;;;11.90;;
13611;SDS011;6877;51.436;6.774;2023-02-08T00:29:51;19.23;;;11.55;;
13611;SDS011;6877;51.436;6.774;2023-02-08T00:32:18;21.95;;;12.77;;
13611;SDS011;6877;51.436;6.774;2023-02-08T00:34:44;22.52;;;12.10;;
13611;SDS011;6877;51.436;6.774;2023-02-08T00:37:11;26.42;;;13.10;;
13611;SDS011;6877;51.436;6.774;2023-02-08T00:39:37;22.25;;;12.00;;
13611;SDS011;6877;51.436;6.774;2023-02-08T00:42:04;24.20;;;12.63;;
13611;SDS011;6877;51.436;6.774;2023-02-08T00:44:31;20.65;;;11.60;;
13611;SDS011;6877;51.436;6.774;2023-02-08T00:46:58;22.67;;;11.60;;
13611;SDS011;6877;51.436;6.774;2023-02-08T00:49:24;20.05;;;11.55;;
13611;SDS011;6877;51.436;6.774;2023-02-08T00:51:51;20.40;;;11.02;;
13611;SDS011;6877;51.436;6.774;2023-02-08T00:54:18;20.27;;;11.38;;
13611;SDS011;6877;51.436;6.774;2023-02-08T00:56:46;20.70;;;11.73;;
13611;SDS011;6877;51.436;6.774;2023-02-08T00:59:13;22.27;;;10.90;;
13611;SDS011;6877;51.436;6.774;2023-02-08T01:01:39;20.67;;;10.45;;
13611;SDS011;6877;51.436;6.774;2023-02-08T01:04:07;20.30;;;12.07;;
13611;SDS011;6877;51.436;6.774;2023-02-08T01:06:34;25.75;;;13.55;;
13611;SDS011;6877;51.436;6.774;2023-02-08T01:09:00;26.50;;;12.77;;
13611;SDS011;6877;51.436;6.774;2023-02-08T01:11:27;23.90;;;14.18;;
13611;SDS011;6877;51.436;6.774;2023-02-08T01:13:54;27.48;;;13.85;;
13611;SDS011;6877;51.436;6.774;2023-02-08T01:16:30;23.67;;;13.40;;
13611;SDS011;6877;51.436;6.774;2023-02-08T01:18:59;24.52;;;12.93;;
13611;SDS011;6877;51.436;6.774;2023-02-08T01:21:33;26.83;;;13.95;;
13611;SDS011;6877;51.436;6.774;2023-02-08T01:24:01;25.38;;;13.35;;
13611;SDS011;6877;51.436;6.774;2023-02-08T01:26:39;20.42;;;11.70;;
13611;SDS011;6877;51.436;6.774;2023-02-08T01:29:08;23.13;;;12.68;;
13611;SDS011;6877;51.436;6.774;2023-02-08T01:31:36;28.83;;;13.43;;
13611;SDS011;6877;51.436;6.774;2023-02-08T01:34:04;22.58;;;11.95;;
13611;SDS011;6877;51.436;6.774;2023-02-08T01:36:32;21.38;;;12.00;;
13611;SDS011;6877;51.436;6.774;2023-02-08T01:39:00;20.85;;;11.40;;
13611;SDS011;6877;51.436;6.774;2023-02-08T01:41:29;22.15;;;13.05;;
13611;SDS011;6877;51.436;6.774;2023-02-08T01:46:25;27.30;;;12.98;;
13611;SDS011;6877;51.436;6.774;2023-02-08T01:48:51;21.38;;;12.45;;
13611;SDS011;6877;51.436;6.774;2023-02-08T01:51:24;23.15;;;12.50;;
13611;SDS011;6877;51.436;6.774;2023-02-08T01:53:59;19.75;;;11.45;;
13611;SDS011;6877;51.436;6.774;2023-02-08T01:56:30;24.73;;;11.57;;
13611;SDS011;6877;51.436;6.774;2023-02-08T01:59:03;24.15;;;11.48;;
13611;SDS011;6877;51.436;6.774;2023-02-08T02:01:32;21.75;;;11.77;;
13611;SDS011;6877;51.436;6.774;2023-02-08T02:04:00;19.98;;;11.32;;
13611;SDS011;6877;51.436;6.774;2023-02-08T02:06:30;20.83;;;11.23;;
13611;SDS011;6877;51.436;6.774;2023-02-08T02:11:50;18.85;;;10.88;;
13611;SDS011;6877;51.436;6.774;2023-02-08T02:14:19;21.13;;;12.13;;
13611;SDS011;6877;51.436;6.774;2023-02-08T02:16:47;21.83;;;13.07;;
13611;SDS011;6877;51.436;6.774;2023-02-08T02:19:26;22.67;;;12.55;;
13611;SDS011;6877;51.436;6.774;2023-02-08T02:24:54;23.75;;;12.85;;
13611;SDS011;6877;51.436;6.774;2023-02-08T02:27:38;22.23;;;10.60;;
13611;SDS011;6877;51.436;6.774;2023-02-08T02:30:32;21.52;;;11.80;;
13611;SDS011;6877;51.436;6.774;2023-02-08T02:33:19;23.20;;;12.18;;
13611;SDS011;6877;51.436;6.774;2023-02-08T02:41:18;19.95;;;11.75;;
13611;SDS011;6877;51.436;6.774;2023-02-08T02:50:05;19.05;;;12.05;;
13611;SDS011;6877;51.436;6.774;2023-02-08T02:53:10;19.58;;;10.43;;
13611;SDS011;6877;51.436;6.774;2023-02-08T02:55:48;18.50;;;10.85;;
13611;SDS011;6877;51.436;6.774;2023-02-08T02:58:25;20.13;;;11.63;;
13611;SDS011;6877;51.436;6.774;2023-02-08T03:00:54;20.60;;;11.85;;
13611;SDS011;6877;51.436;6.774;2023-02-08T03:03:24;27.73;;;12.07;;
13611;SDS011;6877;51.436;6.774;2023-02-08T03:06:00;24.63;;;12.80;;
13611;SDS011;6877;51.436;6.774;2023-02-08T03:11:27;25.00;;;14.80;;
13611;SDS011;6877;51.436;6.774;2023-02-08T03:14:11;30.05;;;14.00;;
13611;SDS011;6877;51.436;6.774;2023-02-08T03:19:21;27.40;;;14.47;;
13611;SDS011;6877;51.436;6.774;2023-02-08T03:21:58;27.92;;;14.10;;
13611;SDS011;6877;51.436;6.774;2023-02-08T03:29:53;20.75;;;12.52;;
13611;SDS011;6877;51.436;6.774;2023-02-08T03:32:28;27.92;;;13.88;;
13611;SDS011;6877;51.436;6.774;2023-02-08T03:35:05;25.10;;;13.35;;
13611;SDS011;6877;51.436;6.774;2023-02-08T03:37:37;26.45;;;14.10;;
13611;SDS011;6877;51.436;6.774;2023-02-08T03:40:53;24.88;;;13.35;;
13611;SDS011;6877;51.436;6.774;2023-02-08T03:43:48;25.53;;;14.27;;
13611;SDS011;6877;51.436;6.774;2023-02-08T03:48:32;27.27;;;14.67;;
13611;SDS011;6877;51.436;6.774;2023-02-08T03:51:02;24.57;;;13.83;;
13611;SDS011;6877;51.436;6.774;2023-02-08T03:53:30;24.63;;;14.13;;
13611;SDS011;6877;51.436;6.774;2023-02-08T03:56:05;28.45;;;15.18;;
13611;SDS011;6877;51.436;6.774;2023-02-08T03:58:41;25.67;;;14.77;;
13611;SDS011;6877;51.436;6.774;2023-02-08T04:01:12;24.23;;;13.93;;
13611;SDS011;6877;51.436;6.774;2023-02-08T04:03:45;29.05;;;14.95;;
13611;SDS011;6877;51.436;6.774;2023-02-08T04:06:15;26.77;;;15.27;;
13611;SDS011;6877;51.436;6.774;2023-02-08T04:08:42;26.60;;;14.47;;
13611;SDS011;6877;51.436;6.774;2023-02-08T04:11:09;20.90;;;13.03;;
13611;SDS011;6877;51.436;6.774;2023-02-08T04:13:35;26.73;;;15.53;;
13611;SDS011;6877;51.436;6.774;2023-02-08T04:16:02;25.13;;;13.90;;
13611;SDS011;6877;51.436;6.774;2023-02-08T04:18:33;26.80;;;14.23;;
13611;SDS011;6877;51.436;6.774;2023-02-08T04:21:00;27.40;;;16.13;;
13611;SDS011;6877;51.436;6.774;2023-02-08T04:23:26;29.27;;;14.73;;
13611;SDS011;6877;51.436;6.774;2023-02-08T04:25:53;29.67;;;16.43;;
13611;SDS011;6877;51.436;6.774;2023-02-08T04:28:19;32.43;;;16.23;;
13611;SDS011;6877;51.436;6.774;2023-02-08T04:30:46;27.97;;;14.80;;
13611;SDS011;6877;51.436;6.774;2023-02-08T04:33:12;26.70;;;13.93;;
13611;SDS011;6877;51.436;6.774;2023-02-08T04:35:40;29.40;;;15.63;;
13611;SDS011;6877;51.436;6.774;2023-02-08T04:38:07;27.92;;;15.60;;
13611;SDS011;6877;51.436;6.774;2023-02-08T04:40:35;27.38;;;15.15;;
13611;SDS011;6877;51.436;6.774;2023-02-08T04:43:01;27.92;;;14.43;;
13611;SDS011;6877;51.436;6.774;2023-02-08T04:45:28;30.35;;;16.40;;
13611;SDS011;6877;51.436;6.774;2023-02-08T04:47:59;30.83;;;15.13;;
13611;SDS011;6877;51.436;6.774;2023-02-08T04:50:26;28.08;;;15.63;;
13611;SDS011;6877;51.436;6.774;2023-02-08T04:52:53;34.03;;;16.10;;
13611;SDS011;6877;51.436;6.774;2023-02-08T04:55:20;26.77;;;13.50;;
13611;SDS011;6877;51.436;6.774;2023-02-08T04:57:47;27.93;;;15.10;;
13611;SDS011;6877;51.436;6.774;2023-02-08T05:00:13;25.80;;;14.90;;
13611;SDS011;6877;51.436;6.774;2023-02-08T05:02:40;30.38;;;16.17;;
13611;SDS011;6877;51.436;6.774;2023-02-08T05:05:07;28.02;;;15.32;;
13611;SDS011;6877;51.436;6.774;2023-02-08T05:07:34;26.45;;;14.45;;
13611;SDS011;6877;51.436;6.774;2023-02-08T05:10:01;25.85;;;15.25;;
13611;SDS011;6877;51.436;6.774;2023-02-08T05:12:27;26.73;;;15.00;;
13611;SDS011;6877;51.436;6.774;2023-02-08T05:14:54;28.40;;;15.57;;
13611;SDS011;6877;51.436;6.774;2023-02-08T05:17:21;30.98;;;17.85;;
13611;SDS011;6877;51.436;6.774;2023-02-08T05:19:47;31.40;;;17.40;;
13611;SDS011;6877;51.436;6.774;2023-02-08T05:22:14;31.60;;;15.93;;
13611;SDS011;6877;51.436;6.774;2023-02-08T05:24:41;36.00;;;18.63;;
13611;SDS011;6877;51.436;6.774;2023-02-08T05:27:13;35.10;;;19.55;;
13611;SDS011;6877;51.436;6.774;2023-02-08T05:29:39;37.33;;;20.97;;
13611;SDS011;6877;51.436;6.774;2023-02-08T05:32:06;39.20;;;21.87;;
13611;SDS011;6877;51.436;6.774;2023-02-08T05:34:33;34.17;;;20.67;;
13611;SDS011;6877;51.436;6.774;2023-02-08T05:36:59;39.50;;;22.60;;
13611;SDS011;6877;51.436;6.774;2023-02-08T05:39:26;43.43;;;22.67;;
13611;SDS011;6877;51.436;6.774;2023-02-08T05:41:53;37.47;;;21.17;;
13611;SDS011;6877;51.436;6.774;2023-02-08T05:44:19;49.58;;;27.40;;
13611;SDS011;6877;51.436;6.774;2023-02-08T05:46:46;40.40;;;23.33;;
13611;SDS011;6877;51.436;6.774;2023-02-08T05:49:13;37.58;;;22.08;;
13611;SDS011;6877;51.436;6.774;2023-02-08T05:51:39;46.85;;;26.17;;
13611;SDS011;6877;51.436;6.774;2023-02-08T05:54:06;44.30;;;24.88;;
13611;SDS011;6877;51.436;6.774;2023-02-08T05:56:32;42.53;;;23.85;;
13611;SDS011;6877;51.436;6.774;2023-02-08T05:59:00;38.70;;;21.83;;
13611;SDS011;6877;51.436;6.774;2023-02-08T06:01:27;36.78;;;23.23;;
13611;SDS011;6877;51.436;6.774;2023-02-08T06:03:54;39.87;;;22.67;;
13611;SDS011;6877;51.436;6.774;2023-02-08T06:06:21;40.07;;;23.73;;
13611;SDS011;6877;51.436;6.774;2023-02-08T06:08:47;40.25;;;24.10;;
13611;SDS011;6877;51.436;6.774;2023-02-08T06:11:14;35.30;;;22.13;;
13611;SDS011;6877;51.436;6.774;2023-02-08T06:13:40;45.05;;;24.10;;
13611;SDS011;6877;51.436;6.774;2023-02-08T06:16:08;40.30;;;24.00;;
13611;SDS011;6877;51.436;6.774;2023-02-08T06:18:37;45.10;;;23.70;;
13611;SDS011;6877;51.436;6.774;2023-02-08T06:21:04;45.55;;;24.02;;
13611;SDS011;6877;51.436;6.774;2023-02-08T06:23:31;39.38;;;23.75;;
13611;SDS011;6877;51.436;6.774;2023-02-08T06:25:58;44.28;;;24.33;;
13611;SDS011;6877;51.436;6.774;2023-02-08T06:28:29;44.22;;;23.92;;
13611;SDS011;6877;51.436;6.774;2023-02-08T06:30:56;38.40;;;23.20;;
13611;SDS011;6877;51.436;6.774;2023-02-08T06:33:22;48.13;;;25.70;;
13611;SDS011;6877;51.436;6.774;2023-02-08T06:35:50;44.05;;;26.05;;
13611;SDS011;6877;51.436;6.774;2023-02-08T06:38:19;42.00;;;22.23;;
13611;SDS011;6877;51.436;6.774;2023-02-08T06:40:48;38.63;;;25.57;;
13611;SDS011;6877;51.436;6.774;2023-02-08T06:43:15;45.77;;;27.27;;
13611;SDS011;6877;51.436;6.774;2023-02-08T06:45:45;48.97;;;28.33;;
13611;SDS011;6877;51.436;6.774;2023-02-08T06:48:12;43.00;;;27.17;;
13611;SDS011;6877;51.436;6.774;2023-02-08T06:50:39;47.80;;;28.98;;
13611;SDS011;6877;51.436;6.774;2023-02-08T06:53:06;46.43;;;28.87;;
13611;SDS011;6877;51.436;6.774;2023-02-08T06:55:33;43.17;;;27.70;;
13611;SDS011;6877;51.436;6.774;2023-02-08T06:57:59;43.10;;;28.80;;
13611;SDS011;6877;51.436;6.774;2023-02-08T07:00:26;45.15;;;30.95;;
13611;SDS011;6877;51.436;6.774;2023-02-08T07:02:52;54.58;;;32.13;;
13611;SDS011;6877;51.436;6.774;2023-02-08T07:05:19;62.40;;;36.95;;
13611;SDS011;6877;51.436;6.774;2023-02-08T07:07:46;59.80;;;35.88;;
13611;SDS011;6877;51.436;6.774;2023-02-08T07:10:14;54.15;;;32.55;;
13611;SDS011;6877;51.436;6.774;2023-02-08T07:12:41;53.72;;;31.02;;
13611;SDS011;6877;51.436;6.774;2023-02-08T07:15:08;47.67;;;33.88;;
13611;SDS011;6877;51.436;6.774;2023-02-08T07:17:38;64.65;;;38.95;;
13611;SDS011;6877;51.436;6.774;2023-02-08T07:20:05;52.05;;;33.00;;
13611;SDS011;6877;51.436;6.774;2023-02-08T07:22:32;63.03;;;40.58;;
13611;SDS011;6877;51.436;6.774;2023-02-08T07:24:59;62.72;;;37.85;;
13611;SDS011;6877;51.436;6.774;2023-02-08T07:27:25;66.07;;;38.55;;
13611;SDS011;6877;51.436;6.774;2023-02-08T07:29:52;57.38;;;35.88;;
13611;SDS011;6877;51.436;6.774;2023-02-08T07:32:18;58.20;;;36.35;;
13611;SDS011;6877;51.436;6.774;2023-02-08T07:34:45;58.90;;;37.22;;
13611;SDS011;6877;51.436;6.774;2023-02-08T07:37:12;46.13;;;28.55;;
13611;SDS011;6877;51.436;6.774;2023-02-08T07:39:39;56.88;;;34.10;;
13611;SDS011;6877;51.436;6.774;2023-02-08T07:42:09;52.17;;;33.15;;
13611;SDS011;6877;51.436;6.774;2023-02-08T07:44:37;56.83;;;32.97;;
13611;SDS011;6877;51.436;6.774;2023-02-08T07:47:04;53.20;;;32.85;;
13611;SDS011;6877;51.436;6.774;2023-02-08T07:49:32;48.83;;;29.98;;
13611;SDS011;6877;51.436;6.774;2023-02-08T07:51:59;44.55;;;28.10;;
13611;SDS011;6877;51.436;6.774;2023-02-08T07:54:27;41.53;;;27.98;;
13611;SDS011;6877;51.436;6.774;2023-02-08T07:56:54;43.60;;;26.77;;
13611;SDS011;6877;51.436;6.774;2023-02-08T07:59:21;44.42;;;26.38;;
13611;SDS011;6877;51.436;6.774;2023-02-08T08:01:48;39.33;;;24.83;;
13611;SDS011;6877;51.436;6.774;2023-02-08T08:04:15;33.25;;;22.35;;
13611;SDS011;6877;51.436;6.774;2023-02-08T08:06:42;40.50;;;23.92;;
13611;SDS011;6877;51.436;6.774;2023-02-08T08:09:08;39.42;;;21.48;;
13611;SDS011;6877;51.436;6.774;2023-02-08T08:11:35;36.38;;;21.40;;
13611;SDS011;6877;51.436;6.774;2023-02-08T08:14:02;39.40;;;21.83;;
13611;SDS011;6877;51.436;6.774;2023-02-08T08:16:29;35.95;;;19.88;;
13611;SDS011;6877;51.436;6.774;2023-02-08T08:18:55;39.55;;;21.15;;
13611;SDS011;6877;51.436;6.774;2023-02-08T08:21:22;36.42;;;18.17;;
13611;SDS011;6877;51.436;6.774;2023-02-08T08:23:48;32.55;;;16.38;;
13611;SDS011;6877;51.436;6.774;2023-02-08T08:26:17;28.77;;;17.40;;
13611;SDS011;6877;51.436;6.774;2023-02-08T08:28:47;33.05;;;16.83;;
13611;SDS011;6877;51.436;6.774;2023-02-08T08:31:16;29.38;;;15.63;;
13611;SDS011;6877;51.436;6.774;2023-02-08T08:33:45;27.40;;;15.73;;
13611;SDS011;6877;51.436;6.774;2023-02-08T08:36:12;23.80;;;15.13;;
13611;SDS011;6877;51.436;6.774;2023-02-08T08:38:39;34.65;;;17.58;;
13611;SDS011;6877;51.436;6.774;2023-02-08T08:41:07;33.35;;;17.45;;
13611;SDS011;6877;51.436;6.774;2023-02-08T08:43:35;29.08;;;17.20;;
13611;SDS011;6877;51.436;6.774;2023-02-08T08:46:03;34.45;;;17.92;;
13611;SDS011;6877;51.436;6.774;2023-02-08T08:48:40;30.02;;;14.82;;
13611;SDS011;6877;51.436;6.774;2023-02-08T08:51:07;27.40;;;15.80;;
13611;SDS011;6877;51.436;6.774;2023-02-08T08:53:34;27.60;;;15.77;;
13611;SDS011;6877;51.436;6.774;2023-02-08T08:56:02;20.75;;;12.88;;
13611;SDS011;6877;51.436;6.774;2023-02-08T08:58:30;23.33;;;9.30;;
13611;SDS011;6877;51.436;6.774;2023-02-08T09:00:58;22.33;;;10.88;;
13611;SDS011;6877;51.436;6.774;2023-02-08T09:03:26;20.88;;;9.85;;
13611;SDS011;6877;51.436;6.774;2023-02-08T09:05:53;15.88;;;9.25;;
13611;SDS011;6877;51.436;6.774;2023-02-08T09:08:20;12.90;;;8.57;;
13611;SDS011;6877;51.436;6.774;2023-02-08T09:10:47;12.27;;;7.82;;
13611;SDS011;6877;51.436;6.774;2023-02-08T09:13:14;12.70;;;7.10;;
13611;SDS011;6877;51.436;6.774;2023-02-08T09:15:44;12.45;;;7.28;;
13611;SDS011;6877;51.436;6.774;2023-02-08T09:18:11;10.02;;;6.78;;
13611;SDS011;6877;51.436;6.774;2023-02-08T09:20:37;15.80;;;8.25;;
13611;SDS011;6877;51.436;6.774;2023-02-08T09:23:04;17.00;;;7.95;;
13611;SDS011;6877;51.436;6.774;2023-02-08T09:25:31;10.50;;;6.38;;
13611;SDS011;6877;51.436;6.774;2023-02-08T09:28:02;12.02;;;6.88;;
13611;SDS011;6877;51.436;6.774;2023-02-08T09:30:29;12.73;;;7.15;;
13611;SDS011;6877;51.436;6.774;2023-02-08T09:32:55;13.85;;;7.72;;
13611;SDS011;6877;51.436;6.774;2023-02-08T09:35:22;9.52;;;6.80;;
13611;SDS011;6877;51.436;6.774;2023-02-08T09:37:48;10.95;;;7.00;;
13611;SDS011;6877;51.436;6.774;2023-02-08T09:40:24;12.05;;;7.45;;
13611;SDS011;6877;51.436;6.774;2023-02-08T09:43:02;17.40;;;7.82;;
13611;SDS011;6877;51.436;6.774;2023-02-08T09:45:58;11.60;;;6.55;;
13611;SDS011;6877;51.436;6.774;2023-02-08T09:48:35;10.70;;;7.07;;
13611;SDS011;6877;51.436;6.774;2023-02-08T09:53:41;11.55;;;6.90;;
13611;SDS011;6877;51.436;6.774;2023-02-08T09:56:13;12.05;;;6.43;;
13611;SDS011;6877;51.436;6.774;2023-02-08T09:58:43;11.55;;;6.78;;
13611;SDS011;6877;51.436;6.774;2023-02-08T10:01:15;9.85;;;4.88;;
13611;SDS011;6877;51.436;6.774;2023-02-08T10:03:56;6.25;;;5.05;;
13611;SDS011;6877;51.436;6.774;2023-02-08T10:06:24;8.93;;;5.63;;
13611;SDS011;6877;51.436;6.774;2023-02-08T10:08:51;10.57;;;5.35;;
13611;SDS011;6877;51.436;6.774;2023-02-08T10:14:15;12.85;;;5.60;;
13611;SDS011;6877;51.436;6.774;2023-02-08T10:17:19;10.20;;;6.13;;
13611;SDS011;6877;51.436;6.774;2023-02-08T10:20:12;6.28;;;4.53;;
13611;SDS011;6877;51.436;6.774;2023-02-08T10:23:03;8.18;;;5.60;;
13611;SDS011;6877;51.436;6.774;2023-02-08T10:28:36;9.48;;;5.60;;
13611;SDS011;6877;51.436;6.774;2023-02-08T10:37:26;6.93;;;4.68;;
13611;SDS011;6877;51.436;6.774;2023-02-08T10:40:13;7.97;;;5.40;;
13611;SDS011;6877;51.436;6.774;2023-02-08T10:42:45;9.65;;;5.93;;
13611;SDS011;6877;51.436;6.774;2023-02-08T10:48:12;6.65;;;4.15;;
13611;SDS011;6877;51.436;6.774;2023-02-08T10:50:43;10.07;;;4.32;;
13611;SDS011;6877;51.436;6.774;2023-02-08T10:53:17;12.85;;;5.60;;
13611;SDS011;6877;51.436;6.774;2023-02-08T10:55:46;10.15;;;6.22;;
13611;SDS011;6877;51.436;6.774;2023-02-08T10:58:23;11.23;;;6.18;;
13611;SDS011;6877;51.436;6.774;2023-02-08T11:00:53;9.65;;;5.75;;
13611;SDS011;6877;51.436;6.774;2023-02-08T11:03:23;8.45;;;5.72;;
13611;SDS011;6877;51.436;6.774;2023-02-08T11:05:52;8.45;;;5.20;;
13611;SDS011;6877;51.436;6.774;2023-02-08T11:08:20;9.68;;;5.90;;
13611;SDS011;6877;51.436;6.774;2023-02-08T11:10:56;11.82;;;6.32;;
13611;SDS011;6877;51.436;6.774;2023-02-08T11:15:59;9.48;;;5.95;;
13611;SDS011;6877;51.436;6.774;2023-02-08T11:18:29;8.85;;;5.10;;
13611;SDS011;6877;51.436;6.774;2023-02-08T11:21:01;8.73;;;5.72;;
13611;SDS011;6877;51.436;6.774;2023-02-08T11:23:37;10.77;;;5.57;;
13611;SDS011;6877;51.436;6.774;2023-02-08T11:28:40;8.68;;;6.38;;
13611;SDS011;6877;51.436;6.774;2023-02-08T11:31:37;11.52;;;4.88;;
13611;SDS011;6877;51.436;6.774;2023-02-08T11:34:09;10.65;;;5.15;;
13611;SDS011;6877;51.436;6.774;2023-02-08T11:36:42;7.00;;;4.43;;
13611;SDS011;6877;51.436;6.774;2023-02-08T11:39:19;8.80;;;5.15;;
13611;SDS011;6877;51.436;6.774;2023-02-08T11:41:55;8.05;;;5.32;;
13611;SDS011;6877;51.436;6.774;2023-02-08T11:44:26;15.15;;;5.13;;
13611;SDS011;6877;51.436;6.774;2023-02-08T11:47:05;7.00;;;4.50;;
13611;SDS011;6877;51.436;6.774;2023-02-08T11:49:39;9.27;;;4.60;;
13611;SDS011;6877;51.436;6.774;2023-02-08T11:55:26;8.55;;;3.75;;
13611;SDS011;6877;51.436;6.774;2023-02-08T12:03:48;4.75;;;4.10;;
13611;SDS011;6877;51.436;6.774;2023-02-08T12:06:20;7.47;;;4.75;;
13611;SDS011;6877;51.436;6.774;2023-02-08T12:19:43;5.43;;;3.78;;
13611;SDS011;6877;51.436;6.774;2023-02-08T12:22:14;7.00;;;3.65;;
13611;SDS011;6877;51.436;6.774;2023-02-08T12:24:47;7.75;;;3.90;;
13611;SDS011;6877;51.436;6.774;2023-02-08T12:27:20;5.65;;;3.38;;
13611;SDS011;6877;51.436;6.774;2023-02-08T12:30:01;6.72;;;4.28;;
13611;SDS011;6877;51.436;6.774;2023-02-08T12:32:50;6.72;;;4.05;;
13611;SDS011;6877;51.436;6.774;2023-02-08T12:35:52;5.28;;;4.03;;
13611;SDS011;6877;51.436;6.774;2023-02-08T12:42:22;6.80;;;3.67;;
13611;SDS011;6877;51.436;6.774;2023-02-08T12:53:18;5.63;;;4.20;;
13611;SDS011;6877;51.436;6.774;2023-02-08T12:55:46;10.73;;;5.38;;
13611;SDS011;6877;51.436;6.774;2023-02-08T12:58:37;7.47;;;4.45;;
13611;SDS011;6877;51.436;6.774;2023-02-08T13:03:47;9.13;;;4.32;;
13611;SDS011;6877;51.436;6.774;2023-02-08T13:06:22;7.55;;;4.53;;
13611;SDS011;6877;51.436;6.774;2023-02-08T13:11:33;10.43;;;5.25;;
13611;SDS011;6877;51.436;6.774;2023-02-08T13:16:45;6.22;;;4.03;;
13611;SDS011;6877;51.436;6.774;2023-02-08T13:21:50;9.00;;;4.30;;
13611;SDS011;6877;51.436;6.774;2023-02-08T13:26:52;6.72;;;4.30;;
13611;SDS011;6877;51.436;6.774;2023-02-08T13:29:19;6.90;;;3.28;;
13611;SDS011;6877;51.436;6.774;2023-02-08T13:31:52;6.40;;;3.40;;
13611;SDS011;6877;51.436;6.774;2023-02-08T13:37:01;4.25;;;3.28;;
13611;SDS011;6877;51.436;6.774;2023-02-08T13:42:02;5.70;;;3.63;;
13611;SDS011;6877;51.436;6.774;2023-02-08T13:44:33;5.30;;;3.65;;
13611;SDS011;6877;51.436;6.774;2023-02-08T13:47:03;7.90;;;3.47;;
13611;SDS011;6877;51.436;6.774;2023-02-08T13:57:59;5.55;;;3.40;;
13611;SDS011;6877;51.436;6.774;2023-02-08T14:00:28;5.60;;;4.18;;
13611;SDS011;6877;51.436;6.774;2023-02-08T14:03:02;4.50;;;3.53;;
13611;SDS011;6877;51.436;6.774;2023-02-08T14:05:33;6.15;;;3.75;;
13611;SDS011;6877;51.436;6.774;2023-02-08T14:08:41;5.00;;;3.70;;
13611;SDS011;6877;51.436;6.774;2023-02-08T14:13:54;7.55;;;3.42;;
13611;SDS011;6877;51.436;6.774;2023-02-08T14:16:34;3.72;;;3.35;;
13611;SDS011;6877;51.436;6.774;2023-02-08T14:24:18;5.80;;;3.28;;
13611;SDS011;6877;51.436;6.774;2023-02-08T14:26:49;5.43;;;3.10;;
13611;SDS011;6877;51.436;6.774;2023-02-08T14:29:23;5.43;;;3.25;;
13611;SDS011;6877;51.436;6.774;2023-02-08T14:31:52;4.47;;;3.30;;
13611;SDS011;6877;51.436;6.774;2023-02-08T14:34:30;7.63;;;3.92;;
13611;SDS011;6877;51.436;6.774;2023-02-08T14:39:46;4.65;;;3.35;;
13611;SDS011;6877;51.436;6.774;2023-02-08T14:42:39;6.00;;;3.75;;
13611;SDS011;6877;51.436;6.774;2023-02-08T14:50:41;6.13;;;3.47;;
13611;SDS011;6877;51.436;6.774;2023-02-08T14:53:35;5.45;;;3.08;;
13611;SDS011;6877;51.436;6.774;2023-02-08T14:56:12;6.00;;;3.67;;
13611;SDS011;6877;51.436;6.774;2023-02-08T14:58:49;6.97;;;3.53;;
13611;SDS011;6877;51.436;6.774;2023-02-08T15:01:42;13.43;;;4.00;;
13611;SDS011;6877;51.436;6.774;2023-02-08T15:04:15;5.22;;;3.80;;
13611;SDS011;6877;51.436;6.774;2023-02-08T15:14:33;6.05;;;3.65;;
13611;SDS011;6877;51.436;6.774;2023-02-08T15:17:01;5.57;;;3.50;;
13611;SDS011;6877;51.436;6.774;2023-02-08T15:19:32;3.50;;;3.20;;
13611;SDS011;6877;51.436;6.774;2023-02-08T15:22:38;11.52;;;3.38;;
13611;SDS011;6877;51.436;6.774;2023-02-08T15:25:13;5.03;;;3.72;;
13611;SDS011;6877;51.436;6.774;2023-02-08T15:27:46;3.65;;;3.30;;
13611;SDS011;6877;51.436;6.774;2023-02-08T15:33:01;6.82;;;3.08;;
13611;SDS011;6877;51.436;6.774;2023-02-08T15:35:33;7.25;;;3.97;;
13611;SDS011;6877;51.436;6.774;2023-02-08T15:38:01;5.18;;;3.38;;
13611;SDS011;6877;51.436;6.774;2023-02-08T15:40:33;7.30;;;3.63;;
13611;SDS011;6877;51.436;6.774;2023-02-08T15:45:33;4.75;;;3.63;;
13611;SDS011;6877;51.436;6.774;2023-02-08T15:48:00;4.25;;;3.10;;
13611;SDS011;6877;51.436;6.774;2023-02-08T15:50:32;8.07;;;3.80;;
13611;SDS011;6877;51.436;6.774;2023-02-08T15:53:02;9.43;;;3.50;;
13611;SDS011;6877;51.436;6.774;2023-02-08T15:55:33;4.25;;;3.50;;
13611;SDS011;6877;51.436;6.774;2023-02-08T15:58:05;4.00;;;3.28;;
13611;SDS011;6877;51.436;6.774;2023-02-08T16:00:40;4.93;;;3.50;;
13611;SDS011;6877;51.436;6.774;2023-02-08T16:03:20;8.50;;;3.50;;
13611;SDS011;6877;51.436;6.774;2023-02-08T16:05:49;7.35;;;3.38;;
13611;SDS011;6877;51.436;6.774;2023-02-08T16:08:30;5.05;;;3.25;;
13611;SDS011;6877;51.436;6.774;2023-02-08T16:10:59;5.10;;;3.47;;
13611;SDS011;6877;51.436;6.774;2023-02-08T16:13:31;8.85;;;3.50;;
13611;SDS011;6877;51.436;6.774;2023-02-08T16:16:13;5.57;;;3.70;;
13611;SDS011;6877;51.436;6.774;2023-02-08T16:19:00;8.25;;;3.65;;
13611;SDS011;6877;51.436;6.774;2023-02-08T16:21:34;4.93;;;3.20;;
13611;SDS011;6877;51.436;6.774;2023-02-08T16:31:43;5.28;;;3.58;;
13611;SDS011;6877;51.436;6.774;2023-02-08T16:34:18;5.20;;;3.50;;
13611;SDS011;6877;51.436;6.774;2023-02-08T16:36:48;4.70;;;3.53;;
13611;SDS011;6877;51.436;6.774;2023-02-08T16:46:48;8.68;;;4.80;;
13611;SDS011;6877;51.436;6.774;2023-02-08T16:49:19;8.18;;;4.32;;
13611;SDS011;6877;51.436;6.774;2023-02-08T16:51:47;8.38;;;4.45;;
13611;SDS011;6877;51.436;6.774;2023-02-08T16:54:16;6.10;;;4.20;;
13611;SDS011;6877;51.436;6.774;2023-02-08T16:56:44;6.20;;;3.97;;
13611;SDS011;6877;51.436;6.774;2023-02-08T16:59:15;9.70;;;4.70;;
13611;SDS011;6877;51.436;6.774;2023-02-08T17:01:42;9.38;;;5.60;;
13611;SDS011;6877;51.436;6.774;2023-02-08T17:04:16;8.85;;;5.30;;
13611;SDS011;6877;51.436;6.774;2023-02-08T17:06:45;14.38;;;5.63;;
13611;SDS011;6877;51.436;6.774;2023-02-08T17:09:12;7.88;;;4.60;;
13611;SDS011;6877;51.436;6.774;2023-02-08T17:11:40;11.07;;;5.72;;
13611;SDS011;6877;51.436;6.774;2023-02-08T17:14:07;7.43;;;4.55;;
13611;SDS011;6877;51.436;6.774;2023-02-08T17:16:36;6.55;;;4.03;;
13611;SDS011;6877;51.436;6.774;2023-02-08T17:19:04;10.00;;;5.25;;
13611;SDS011;6877;51.436;6.774;2023-02-08T17:21:32;10.15;;;5.53;;
13611;SDS011;6877;51.436;6.774;2023-02-08T17:23:59;13.43;;;5.03;;
13611;SDS011;6877;51.436;6.774;2023-02-08T17:26:34;7.95;;;5.05;;
13611;SDS011;6877;51.436;6.774;2023-02-08T17:29:05;9.05;;;4.60;;
13611;SDS011;6877;51.436;6.774;2023-02-08T17:31:32;12.32;;;6.45;;
13611;SDS011;6877;51.436;6.774;2023-02-08T17:33:59;10.10;;;5.25;;
13611;SDS011;6877;51.436;6.774;2023-02-08T17:36:30;15.02;;;6.95;;
13611;SDS011;6877;51.436;6.774;2023-02-08T17:38:58;14.25;;;6.47;;
13611;SDS011;6877;51.436;6.774;2023-02-08T17:41:25;20.50;;;6.35;;
13611;SDS011;6877;51.436;6.774;2023-02-08T17:43:53;14.68;;;6.25;;